ADDS METAR Data INFO
IDs: Format: Raw Decoded Include TAF

Data at: 1508 UTC 11 Dec 2017

PFYU 111456Z AUTO 06012G19KT 5SM -SN BR BKN015 OVC024 M07/M09 A2935 RMK AO2 PK WND 05026/1417 SLP963 P0000 60000 T10721089 58045 FZRANO
PFYU 111429Z AUTO 06012G21KT 3SM -SN BR FEW017 BKN027 OVC047 M07/M09 A2936 RMK AO2 PK WND 05026/1417 P0000 FZRANO
PFYU 111423Z AUTO 05015G26KT 1 3/4SM -SN BR SCT017 BKN022 OVC032 M08/M09 A2935 RMK AO2 PK WND 05026/1417 P0000 FZRANO
PFYU 111356Z AUTO 05015G19KT 1 1/4SM -SN BR BKN014 OVC019 M07/M09 A2939 RMK AO2 SNB06 PRESFR SLP979 P0000 T10721089 FZRANO
PFYU 111334Z AUTO 04011KT 1 3/4SM -SN BR OVC020 M07/M09 A2944 RMK AO2 SNB06 P0000 FZRANO
PFYU 111317Z AUTO 04012KT 2 1/2SM -SN BR SCT017 BKN024 OVC048 M07/M09 A2945 RMK AO2 SNB06 PRESFR P0000 FZRANO
PFYU 111256Z AUTO 05008KT 10SM SCT050 OVC070 M08/M09 A2949 RMK AO2 SLP011 T10781089 FZRANO
PFYU 111156Z AUTO 05009KT 10SM OVC110 M08/M09 A2948 RMK AO2 SLP009 T10781094 11078 21111 56045 FZRANO
PFYU 111056Z AUTO 05011KT 10SM FEW120 M08/M10 A2951 RMK AO2 PRESFR SLP015 T10831100 FZRANO
PFYU 110956Z AUTO 05011G16KT 10SM CLR M09/M11 A2957 RMK AO2 SLP037 T10891106 FZRANO
PFYU 110856Z AUTO 05011KT 10SM CLR M09/M11 A2962 RMK AO2 SLP054 T10941111 410831117 58038 FZRANO
PFYU 110756Z AUTO 05008KT 10SM CLR M11/M12 A2968 RMK AO2 SLP076 T11061117 FZRANO
PFYU 110656Z AUTO 04007KT 10SM CLR M11/M12 A2972 RMK AO2 SLP090 T11061117 FZRANO
PFYU 110556Z AUTO 04008KT 10SM CLR M11/M12 A2973 RMK AO2 SLP092 T11111122 11094 21117 58024 FZRANO
PFYU 110456Z AUTO 05004KT 10SM CLR M11/M12 A2978 RMK AO2 SLP108 T11111122 FZRANO
PFYU 110356Z 03005KT 10SM CLR M12/M13 A2979 RMK AO2 SLP112 T11171128
PFYU 110256Z 03004KT 10SM CLR M11/M12 A2980 RMK AO2 SLP117 T11061122 58009
PFYU 110156Z 04007KT 10SM FEW075 SCT090 BKN110 M09/M11 A2981 RMK AO2 SLP118 T10941106
PFYU 110056Z 03004KT 10SM FEW110 M10/M11 A2983 RMK AO2 SLP124 T11001111
PFYU 102356Z 02004KT 10SM BKN080 M11/M12 A2983 RMK AO2 SLP126 T11061117 11094 21111 53004
PFYU 102256Z 05004KT 10SM FEW065 SCT110 M11/M12 A2982 RMK AO2 SLP122 T11061117
PFYU 102156Z 04007KT 10SM FEW060 BKN100 M10/M11 A2982 RMK AO2 SLP123 T11001111
PFYU 102056Z 04005KT 10SM FEW028 BKN100 M11/M12 A2982 RMK AO2 SLP121 T11061117 51016
PFYU 101956Z 06004KT 10SM FEW028 SCT100 M11/M12 A2980 RMK AO2 SLP114 T11111122
PFYU 101856Z 05004KT 10SM FEW028 SCT065 BKN100 M11/M12 A2979 RMK AO2 SLP114 T11061117
PFYU 101756Z 05006KT 10SM FEW065 SCT120 M10/M11 A2977 RMK AO2 SNB06E16 SLP106 P0000 60000 T11001111 11094 21100 51011
PFYU 101656Z 05009KT 10SM BKN050 OVC065 M09/M11 A2976 RMK AO2 SLP102 T10941111
PFYU 101556Z AUTO 06007KT 10SM OVC055 M09/M11 A2975 RMK AO2 SLP099 T10941111 FZRANO
PFYU 101456Z AUTO 04010KT 10SM OVC055 M09/M11 A2973 RMK AO2 SLP094 T10941111 56005 FZRANO
PFYU 101356Z AUTO 05007KT 10SM FEW020 OVC055 M09/M11 A2974 RMK AO2 SLP094 T10941106 FZRANO
PFYU 101308Z AUTO 05008KT 10SM BKN022 OVC055 M09/M11 A2974 RMK AO2 FZRANO
PFYU 101256Z AUTO 06007KT 10SM FEW012 SCT022 OVC055 M09/M11 A2974 RMK AO2 SLP096 T10941106 FZRANO
PFYU 101249Z AUTO 05007KT 10SM SCT012 SCT022 OVC055 M09/M11 A2974 RMK AO2 FZRANO
PFYU 101156Z AUTO 06005KT 10SM OVC010 M09/M11 A2975 RMK AO2 SLP099 T10941106 11072 21094 55005 FZRANO
PFYU 101056Z AUTO 05008KT 10SM BKN010 OVC050 M09/M10 A2974 RMK AO2 SLP097 T10891100 FZRANO
PFYU 101020Z AUTO 04009KT 10SM OVC010 M09/M10 A2975 RMK AO2 FZRANO
PFYU 100956Z AUTO 04008KT 10SM OVC008 M09/M10 A2976 RMK AO2 SLP102 T10891100 FZRANO
PFYU 100856Z AUTO 04009KT 10SM OVC008 M08/M09 A2976 RMK AO2 SLP103 T10831094 410611083 55006 FZRANO
PFYU 100756Z AUTO 05012KT 10SM OVC006 M08/M09 A2976 RMK AO2 SLP102 T10781089 FZRANO
PFYU 100720Z AUTO 04009KT 10SM OVC006 M08/M08 A2977 RMK AO2 FZRANO
PFYU 100656Z AUTO 04007KT 10SM OVC004 M08/M08 A2977 RMK AO2 SLP107 T10781083 FZRANO
PFYU 100556Z AUTO 02007KT 6SM BR OVC004 M07/M08 A2978 RMK AO2 UPE0458B35E46SNB21E35B46E47 SLP109 P0000 60000 T10721083 11061 21072 58019 FZRANO
PFYU 100544Z AUTO 03009KT 4SM UP BR OVC004 M07/M08 A2978 RMK AO2 UPE0458B35SNB21E35 P0000 FZRANO
PFYU 100521Z AUTO 03008KT 2SM -SN BR OVC004 M07/M08 A2979 RMK AO2 UPE0458SNB21 P0000 FZRANO
PFYU 100456Z AUTO 03008KT 3SM UP BR OVC004 M07/M08 A2980 RMK AO2 UPB29SNB11E29 SLP117 P0000 T10721083 FZRANO
PFYU 100449Z AUTO 03008KT 2 1/2SM UP BR OVC004 M07/M08 A2981 RMK AO2 VIS 2V3 UPB29SNB11E29 P0000 FZRANO
PFYU 100437Z AUTO 02007KT 1 1/2SM UP BR OVC004 M07/M08 A2981 RMK AO2 UPB29SNB11E29 P0000 FZRANO
PFYU 100424Z AUTO 03007KT 1SM -SN BR OVC004 M07/M08 A2982 RMK AO2 SNB11 P0000 FZRANO
PFYU 100356Z 03007KT 1 1/2SM BR OVC004 M07/M08 A2983 RMK AO2 SNB16E29 SLP124 P0000 T10721078
PFYU 100330Z 04006KT 1 3/4SM BR OVC004 M07/M08 A2982 RMK AO2 SNB16E29 P0000